createdAt,value
2019-05-09T00:02:13.762Z,7.30
2019-05-09T00:05:03.582Z,7.20
2019-05-09T00:07:53.188Z,7.10
2019-05-09T00:10:45.025Z,7.00
2019-05-09T00:13:36.981Z,7.00
2019-05-09T00:16:28.598Z,7.00
2019-05-09T00:19:20.109Z,6.90
2019-05-09T00:22:13.921Z,6.90
2019-05-09T00:25:03.306Z,6.90
2019-05-09T00:27:53.658Z,6.90
2019-05-09T00:31:13.659Z,6.80
2019-05-09T00:34:04.395Z,7.00
2019-05-09T00:36:53.957Z,7.10
2019-05-09T00:39:45.337Z,7.10
2019-05-09T00:42:37.653Z,7.20
2019-05-09T00:45:47.561Z,7.20
2019-05-09T00:49:00.003Z,7.30
2019-05-09T00:51:49.873Z,7.30
2019-05-09T00:54:37.879Z,7.40
2019-05-09T00:57:34.627Z,7.40
2019-05-09T01:00:24.226Z,7.50
2019-05-09T01:03:13.991Z,7.50
2019-05-09T01:06:04.126Z,7.40
2019-05-09T01:08:57.423Z,7.50
2019-05-09T01:11:46.110Z,7.50
2019-05-09T01:14:36.065Z,7.60
2019-05-09T01:17:28.130Z,7.60
2019-05-09T01:20:16.823Z,7.60
2019-05-09T01:23:05.807Z,7.60
2019-05-09T01:25:55.279Z,7.70
2019-05-09T01:28:44.309Z,7.70
2019-05-09T01:31:34.605Z,7.80
2019-05-09T01:34:29.108Z,7.70
2019-05-09T01:37:17.643Z,7.90
2019-05-09T01:40:08.900Z,7.90
2019-05-09T01:43:01.122Z,8.00
2019-05-09T01:45:49.264Z,8.00
2019-05-09T01:48:43.964Z,7.90
2019-05-09T01:51:35.931Z,7.90
2019-05-09T01:54:27.688Z,7.90
2019-05-09T01:57:17.762Z,7.90
2019-05-09T02:00:06.136Z,8.00
2019-05-09T02:02:57.213Z,8.00
2019-05-09T02:06:03.386Z,8.00
2019-05-09T02:08:44.821Z,8.20
2019-05-09T02:11:43.321Z,8.40
2019-05-09T02:14:54.867Z,8.20
2019-05-09T02:18:05.337Z,8.30
2019-05-09T02:20:56.958Z,8.30
2019-05-09T02:23:49.148Z,8.20
2019-05-09T02:26:38.336Z,8.20
2019-05-09T02:29:33.731Z,8.30
2019-05-09T02:32:23.996Z,8.20
2019-05-09T02:35:12.809Z,8.20
2019-05-09T02:38:02.016Z,8.10
2019-05-09T02:40:55.766Z,8.10
2019-05-09T02:43:49.557Z,8.20
2019-05-09T02:47:00.111Z,8.10
2019-05-09T02:49:51.428Z,8.10
2019-05-09T02:52:48.304Z,8.10
2019-05-09T02:58:32.956Z,7.90
2019-05-09T03:01:29.432Z,7.90
2019-05-09T03:04:23.035Z,7.90
2019-05-09T03:07:12.519Z,7.90
2019-05-09T03:10:02.375Z,8.00
2019-05-09T03:12:55.630Z,7.90
2019-05-09T03:15:44.963Z,7.80
2019-05-09T03:18:34.766Z,7.90
2019-05-09T03:21:49.828Z,7.70
2019-05-09T03:24:42.766Z,7.50
2019-05-09T03:27:39.160Z,7.30
2019-05-09T03:30:31.537Z,7.20
2019-05-09T03:33:20.482Z,7.00
2019-05-09T03:36:08.603Z,7.00
2019-05-09T03:38:59.276Z,7.00
2019-05-09T03:41:49.984Z,7.10
2019-05-09T03:44:38.667Z,7.00
2019-05-09T03:47:41.289Z,6.80
2019-05-09T03:50:28.949Z,6.60
2019-05-09T03:53:22.783Z,6.50
2019-05-09T03:56:13.838Z,6.40
2019-05-09T03:59:08.356Z,6.40
2019-05-09T04:01:58.962Z,6.40
2019-05-09T04:04:48.075Z,6.40
2019-05-09T04:07:39.429Z,6.50
2019-05-09T04:10:31.433Z,6.50
2019-05-09T04:13:28.122Z,6.40
2019-05-09T04:16:30.268Z,6.40
2019-05-09T04:19:24.885Z,6.40
2019-05-09T04:22:22.518Z,6.50
2019-05-09T04:25:23.318Z,6.40
2019-05-09T04:28:13.260Z,6.50
2019-05-09T04:31:01.931Z,6.60
2019-05-09T04:33:57.922Z,6.60
2019-05-09T04:36:50.793Z,6.70
2019-05-09T04:39:47.239Z,6.70
2019-05-09T04:42:43.186Z,6.70
2019-05-09T04:45:41.718Z,6.70
2019-05-09T04:48:34.234Z,6.80
2019-05-09T04:51:22.626Z,6.80
2019-05-09T04:54:10.515Z,6.80
2019-05-09T04:56:58.679Z,6.70
2019-05-09T04:59:47.519Z,6.80
2019-05-09T05:02:44.323Z,6.90
2019-05-09T05:05:32.247Z,7.00
2019-05-09T05:08:20.033Z,7.20
2019-05-09T05:11:07.844Z,7.40
2019-05-09T05:13:55.502Z,7.50
2019-05-09T05:16:43.367Z,7.80
2019-05-09T05:19:35.630Z,8.00
2019-05-09T05:22:54.105Z,8.30
2019-05-09T05:25:41.512Z,8.60
2019-05-09T05:28:29.450Z,8.90
2019-05-09T05:31:18.144Z,9.10
2019-05-09T05:34:10.049Z,9.20
2019-05-09T05:36:58.318Z,9.50
2019-05-09T05:39:47.802Z,9.60
2019-05-09T05:42:39.640Z,9.60
2019-05-09T05:45:29.360Z,9.70
2019-05-09T05:48:21.278Z,9.80
2019-05-09T05:51:09.547Z,9.80
2019-05-09T05:54:03.381Z,9.90
2019-05-09T05:56:53.326Z,10.00
2019-05-09T05:59:48.359Z,10.10
2019-05-09T06:02:47.947Z,10.10
2019-05-09T06:05:52.328Z,10.30
2019-05-09T06:08:40.116Z,10.50
2019-05-09T06:11:28.268Z,10.60
2019-05-09T06:14:18.462Z,10.70
2019-05-09T06:17:08.046Z,10.70
2019-05-09T06:19:55.400Z,10.80
2019-05-09T06:22:43.352Z,10.80
2019-05-09T06:25:58.767Z,10.90
2019-05-09T06:29:28.621Z,10.90
2019-05-09T06:35:54.588Z,11.00
2019-05-09T06:38:42.278Z,11.10
2019-05-09T06:41:30.689Z,11.10
2019-05-09T06:44:28.565Z,11.20
2019-05-09T06:47:38.141Z,11.20
2019-05-09T06:50:27.293Z,11.30
2019-05-09T06:53:17.929Z,11.30
2019-05-09T06:56:07.429Z,11.30
2019-05-09T06:58:55.560Z,11.20
2019-05-09T07:02:08.904Z,11.10
2019-05-09T07:05:17.827Z,11.00
2019-05-09T07:11:49.304Z,11.30
2019-05-09T07:14:40.954Z,11.70
2019-05-09T07:17:31.735Z,11.90
2019-05-09T07:20:18.287Z,12.30
2019-05-09T07:23:08.431Z,12.60
2019-05-09T07:26:17.700Z,12.90
2019-05-09T07:29:07.459Z,13.00
2019-05-09T07:32:11.889Z,12.90
2019-05-09T07:35:01.848Z,12.90
2019-05-09T07:37:50.351Z,13.10
2019-05-09T07:40:41.584Z,13.20
2019-05-09T07:43:29.503Z,13.40
2019-05-09T07:46:28.069Z,13.20
2019-05-09T07:49:17.545Z,13.30
2019-05-09T07:52:13.805Z,13.50
2019-05-09T07:55:01.868Z,13.60
2019-05-09T07:57:54.957Z,13.80
2019-05-09T08:00:39.537Z,14.10
2019-05-09T08:03:33.412Z,14.30
2019-05-09T08:06:21.735Z,14.40
2019-05-09T08:09:09.829Z,13.90
2019-05-09T08:11:58.753Z,13.90
2019-05-09T08:15:06.829Z,13.80
2019-05-09T08:17:38.165Z,13.60
2019-05-09T08:20:27.704Z,13.40
2019-05-09T08:23:19.234Z,13.10
2019-05-09T08:26:08.711Z,13.20
2019-05-09T08:28:58.419Z,13.30
2019-05-09T08:31:52.126Z,13.40
2019-05-09T08:34:37.727Z,13.30
2019-05-09T08:37:25.038Z,13.20
2019-05-09T08:40:12.750Z,13.10
2019-05-09T08:43:07.399Z,12.80
2019-05-09T08:45:50.711Z,12.30
2019-05-09T08:48:39.104Z,11.70
2019-05-09T08:52:02.980Z,11.40
2019-05-09T08:54:43.942Z,11.30
2019-05-09T08:57:31.930Z,11.30
2019-05-09T09:00:19.750Z,11.20
2019-05-09T09:03:08.221Z,11.10
2019-05-09T09:05:57.725Z,11.10
2019-05-09T09:08:48.112Z,11.10
2019-05-09T09:11:47.822Z,11.00
2019-05-09T09:14:38.508Z,10.90
2019-05-09T09:17:29.421Z,10.80
2019-05-09T09:20:18.303Z,10.80
2019-05-09T09:23:17.851Z,10.70
2019-05-09T09:26:04.820Z,10.80
2019-05-09T09:28:53.101Z,10.80
2019-05-09T09:32:00.593Z,10.80
2019-05-09T09:34:50.850Z,10.80
2019-05-09T09:37:48.407Z,10.90
2019-05-09T09:40:28.168Z,10.90
2019-05-09T09:43:22.173Z,10.90
2019-05-09T09:46:14.290Z,11.00
2019-05-09T09:48:59.646Z,11.20
2019-05-09T09:51:48.490Z,11.40
2019-05-09T09:54:38.595Z,11.40
2019-05-09T09:57:28.804Z,11.80
2019-05-09T10:00:32.510Z,12.30
2019-05-09T10:03:29.588Z,12.90
2019-05-09T10:06:18.740Z,13.40
2019-05-09T10:09:09.379Z,13.60
2019-05-09T10:12:00.554Z,14.10
2019-05-09T10:14:57.730Z,14.30
2019-05-09T10:18:07.480Z,14.50
2019-05-09T10:20:59.267Z,14.80
2019-05-09T10:23:48.363Z,15.30
2019-05-09T10:27:01.944Z,15.50
2019-05-09T10:29:49.626Z,15.80
2019-05-09T10:32:38.449Z,16.30
2019-05-09T10:35:27.928Z,15.80
2019-05-09T10:38:18.193Z,16.30
2019-05-09T10:41:10.971Z,16.10
2019-05-09T10:44:22.065Z,16.50
2019-05-09T10:47:35.020Z,15.30
2019-05-09T10:50:23.070Z,16.20
2019-05-09T10:53:13.304Z,16.10
2019-05-09T10:56:00.995Z,16.40
2019-05-09T10:58:48.515Z,16.10
2019-05-09T11:01:38.205Z,16.20
2019-05-09T11:04:29.866Z,15.80
2019-05-09T11:07:19.341Z,15.10
2019-05-09T11:10:23.991Z,15.40
2019-05-09T11:12:58.462Z,15.20
2019-05-09T11:15:48.919Z,15.30
2019-05-09T11:18:37.278Z,15.30
2019-05-09T11:21:28.839Z,15.30
2019-05-09T11:24:43.008Z,15.80
2019-05-09T11:27:29.207Z,15.40
2019-05-09T11:30:34.467Z,15.30
2019-05-09T11:34:13.921Z,15.30
2019-05-09T11:50:28.676Z,14.70
2019-05-09T11:56:57.638Z,15.00
2019-05-09T11:59:47.905Z,14.90
2019-05-09T12:02:49.865Z,14.60
2019-05-09T12:05:47.781Z,14.70
2019-05-09T12:08:38.568Z,14.50
2019-05-09T12:11:47.962Z,14.00
2019-05-09T12:14:35.092Z,13.90
2019-05-09T12:18:28.816Z,13.80
2019-05-09T12:22:08.764Z,13.70
2019-05-09T12:24:56.046Z,13.60
2019-05-09T12:27:51.127Z,13.40
2019-05-09T12:30:38.430Z,13.30
2019-05-09T12:33:28.806Z,13.40
2019-05-09T12:36:19.115Z,13.40
2019-05-09T12:39:08.706Z,13.70
2019-05-09T12:41:57.824Z,13.60
2019-05-09T12:44:49.324Z,13.90
2019-05-09T12:47:40.341Z,13.90
2019-05-09T12:50:29.601Z,14.10
2019-05-09T12:53:27.914Z,14.10
2019-05-09T12:56:15.163Z,14.10
2019-05-09T12:59:04.466Z,14.40
2019-05-09T13:01:54.975Z,14.40
2019-05-09T13:04:59.840Z,14.30
2019-05-09T13:07:57.694Z,14.60
2019-05-09T13:10:41.227Z,14.40
2019-05-09T13:13:44.273Z,14.60
2019-05-09T13:16:45.484Z,14.70
2019-05-09T13:19:50.622Z,14.70
2019-05-09T13:22:59.656Z,14.80
2019-05-09T13:25:50.400Z,14.70
2019-05-09T13:28:37.808Z,14.70
2019-05-09T13:31:40.108Z,14.80
2019-05-09T13:34:28.390Z,14.80
2019-05-09T13:37:18.880Z,14.70
2019-05-09T13:40:13.536Z,14.70
2019-05-09T13:46:17.712Z,14.60
2019-05-09T13:53:59.277Z,14.40
2019-05-09T13:57:02.113Z,14.20
2019-05-09T14:00:56.748Z,13.80
2019-05-09T14:03:53.064Z,13.30
2019-05-09T14:07:28.307Z,13.10
2019-05-09T14:11:33.348Z,12.90
2019-05-09T14:18:28.795Z,12.60
2019-05-09T14:21:23.697Z,12.50
2019-05-09T14:24:15.077Z,12.40
2019-05-09T14:26:58.340Z,12.50
2019-05-09T14:29:46.337Z,12.50
2019-05-09T14:32:35.111Z,12.60
2019-05-09T14:35:23.014Z,12.70
2019-05-09T14:38:14.071Z,12.70
2019-05-09T14:42:12.797Z,12.70
2019-05-09T14:45:01.864Z,12.90
2019-05-09T14:48:18.980Z,12.80
2019-05-09T14:51:07.635Z,13.10
2019-05-09T14:53:59.446Z,13.40
2019-05-09T14:56:48.571Z,13.60
2019-05-09T14:59:38.384Z,13.70
2019-05-09T15:02:28.461Z,13.40
2019-05-09T15:06:18.165Z,13.60
2019-05-09T15:08:19.094Z,13.70
2019-05-09T15:11:10.016Z,13.60
2019-05-09T15:13:58.570Z,13.40
2019-05-09T15:16:57.555Z,13.30
2019-05-09T15:19:57.395Z,13.20
2019-05-09T15:22:39.504Z,13.20
2019-05-09T15:25:28.165Z,13.10
2019-05-09T15:28:19.459Z,13.20
2019-05-09T15:31:08.898Z,13.20
2019-05-09T15:33:57.403Z,13.20
2019-05-09T15:36:45.202Z,13.00
2019-05-09T15:39:32.811Z,13.00
2019-05-09T15:42:20.274Z,12.90
2019-05-09T15:45:08.565Z,13.00
2019-05-09T15:47:58.300Z,13.00
2019-05-09T15:50:47.701Z,13.00
2019-05-09T15:53:41.931Z,13.00
2019-05-09T15:56:32.525Z,13.10
2019-05-09T15:59:24.360Z,13.30
2019-05-09T16:02:13.628Z,13.40
2019-05-09T16:05:03.325Z,13.50
2019-05-09T16:07:55.051Z,13.50
2019-05-09T16:10:43.401Z,13.50
2019-05-09T16:13:33.266Z,13.70
2019-05-09T16:16:28.449Z,14.60
2019-05-09T16:19:16.519Z,16.10
2019-05-09T16:22:08.011Z,16.20
2019-05-09T16:24:55.480Z,17.00
2019-05-09T16:27:43.491Z,16.00
2019-05-09T16:30:31.359Z,15.80
2019-05-09T16:33:28.386Z,16.00
2019-05-09T16:36:17.610Z,14.90
2019-05-09T16:39:14.928Z,14.30
2019-05-09T16:42:06.344Z,14.30
2019-05-09T16:45:08.073Z,14.20
2019-05-09T16:48:10.942Z,14.00
2019-05-09T16:51:00.673Z,13.90
2019-05-09T16:53:42.193Z,14.00
2019-05-09T16:56:29.904Z,13.80
2019-05-09T16:59:18.077Z,13.90
2019-05-09T17:02:20.682Z,13.90
2019-05-09T17:04:57.712Z,13.90
2019-05-09T17:07:47.551Z,13.80
2019-05-09T17:10:34.725Z,14.30
2019-05-09T17:13:21.937Z,14.20
2019-05-09T17:16:09.123Z,14.30
2019-05-09T17:18:58.157Z,14.40
2019-05-09T17:21:51.594Z,15.50
2019-05-09T17:24:40.559Z,14.90
2019-05-09T17:27:28.145Z,14.10
2019-05-09T17:30:15.714Z,14.40
2019-05-09T17:33:04.094Z,14.00
2019-05-09T17:35:52.133Z,14.30
2019-05-09T17:38:40.343Z,14.10
2019-05-09T17:41:28.522Z,13.90
2019-05-09T17:44:18.437Z,13.90
2019-05-09T17:47:08.183Z,13.80
2019-05-09T17:49:57.340Z,13.70
2019-05-09T17:52:44.382Z,13.70
2019-05-09T17:55:31.829Z,13.70
2019-05-09T17:58:29.803Z,13.60
2019-05-09T18:01:08.646Z,13.70
2019-05-09T18:03:58.874Z,13.80
2019-05-09T18:06:45.142Z,13.60
2019-05-09T18:09:33.023Z,13.60
2019-05-09T18:12:20.610Z,13.50
2019-05-09T18:15:08.998Z,13.40
2019-05-09T18:17:58.608Z,13.20
2019-05-09T18:20:45.750Z,13.20
2019-05-09T18:23:33.359Z,13.10
2019-05-09T18:26:20.859Z,13.10
2019-05-09T18:29:08.722Z,13.00
2019-05-09T18:32:16.394Z,13.00
2019-05-09T18:35:22.435Z,13.00
2019-05-09T18:38:14.468Z,12.90
2019-05-09T18:41:12.941Z,12.90
2019-05-09T18:44:00.288Z,12.90
2019-05-09T18:46:48.310Z,12.80
2019-05-09T18:49:36.099Z,12.80
2019-05-09T18:52:23.855Z,12.80
2019-05-09T18:55:12.239Z,12.80
2019-05-09T18:58:00.242Z,12.70
2019-05-09T19:00:58.558Z,12.70
2019-05-09T19:03:46.386Z,12.60
2019-05-09T19:06:34.726Z,12.50
2019-05-09T19:09:22.806Z,12.50
2019-05-09T19:12:10.787Z,12.50
2019-05-09T19:14:58.885Z,12.40
2019-05-09T19:18:00.178Z,12.40
2019-05-09T19:24:36.167Z,12.30
2019-05-09T19:27:24.572Z,12.30
2019-05-09T19:30:21.822Z,12.20
2019-05-09T19:33:11.351Z,12.20
2019-05-09T19:36:14.101Z,12.20
2019-05-09T19:39:07.534Z,12.20
2019-05-09T19:42:19.314Z,12.20
2019-05-09T19:49:11.330Z,12.00
2019-05-09T19:52:57.997Z,11.90
2019-05-09T19:56:01.564Z,11.90
2019-05-09T19:58:50.613Z,11.90
2019-05-09T20:01:41.354Z,11.80
2019-05-09T20:04:32.898Z,11.80
2019-05-09T20:07:37.940Z,11.60
2019-05-09T20:11:14.045Z,11.50
2019-05-09T20:14:18.615Z,11.40
2019-05-09T20:17:39.551Z,11.30
2019-05-09T20:20:40.459Z,11.10
2019-05-09T20:23:40.805Z,11.00
2019-05-09T20:26:31.580Z,10.90
2019-05-09T20:29:30.202Z,10.80
2019-05-09T20:32:17.586Z,10.70
2019-05-09T20:35:21.659Z,10.70
2019-05-09T20:38:35.996Z,10.80
2019-05-09T20:41:26.683Z,10.80
2019-05-09T20:44:25.030Z,10.70
2019-05-09T20:47:31.081Z,10.60
2019-05-09T20:50:24.926Z,10.60
2019-05-09T20:53:49.205Z,10.60
2019-05-09T20:56:37.263Z,10.60
2019-05-09T20:59:26.032Z,10.60
2019-05-09T21:02:19.946Z,10.50
2019-05-09T21:05:40.789Z,10.60
2019-05-09T21:08:05.190Z,10.50
2019-05-09T21:14:45.712Z,10.60
2019-05-09T21:17:34.644Z,10.60
2019-05-09T21:20:22.918Z,10.50
2019-05-09T21:23:23.812Z,10.60
2019-05-09T21:26:08.124Z,10.60
2019-05-09T21:28:56.616Z,10.60
2019-05-09T21:31:44.515Z,10.60
2019-05-09T21:35:01.506Z,10.60
2019-05-09T21:37:37.529Z,10.60
2019-05-09T21:40:26.426Z,10.60
2019-05-09T21:46:16.526Z,10.60
2019-05-09T21:49:04.817Z,10.50
2019-05-09T21:52:00.495Z,10.60
2019-05-09T21:54:50.432Z,10.50
2019-05-09T21:57:44.544Z,10.50
2019-05-09T22:00:35.795Z,10.50
2019-05-09T22:07:00.181Z,10.50
2019-05-09T22:10:00.207Z,10.40
2019-05-09T22:12:58.670Z,10.40
2019-05-09T22:16:11.606Z,10.30
2019-05-09T22:19:01.706Z,10.30
2019-05-09T22:21:50.306Z,10.30
2019-05-09T22:24:41.792Z,10.20
2019-05-09T22:32:03.340Z,10.20
2019-05-09T22:35:02.423Z,10.20
2019-05-09T22:37:57.123Z,10.20
2019-05-09T22:40:58.587Z,10.20
2019-05-09T22:44:11.795Z,10.20
2019-05-09T22:47:13.442Z,10.10
2019-05-09T22:49:59.453Z,10.10
2019-05-09T22:52:52.467Z,10.00
2019-05-09T22:55:48.222Z,10.00
2019-05-09T22:58:52.538Z,10.10
2019-05-09T23:01:46.011Z,10.00
2019-05-09T23:04:38.153Z,10.00
2019-05-09T23:07:28.752Z,10.00
2019-05-09T23:10:26.534Z,9.90
2019-05-09T23:13:23.154Z,10.00
2019-05-09T23:16:12.218Z,9.90
2019-05-09T23:19:06.216Z,9.90
2019-05-09T23:22:25.059Z,9.80
2019-05-09T23:25:31.240Z,9.80
2019-05-09T23:28:23.465Z,9.80
2019-05-09T23:31:23.002Z,9.80
2019-05-09T23:34:13.176Z,9.80
2019-05-09T23:37:02.434Z,9.90
2019-05-09T23:39:58.774Z,9.80
2019-05-09T23:42:49.884Z,9.80
2019-05-09T23:46:11.009Z,9.90
2019-05-09T23:49:10.194Z,9.90
2019-05-09T23:52:03.779Z,9.90
2019-05-09T23:55:12.901Z,9.90
2019-05-09T23:58:26.232Z,10.00
